MSC Alexa — 3FPP6 — position and weather

sailwx.info

Track history (hours):
 
Tides and Currents Weather Stations Pressure Air Temp Water Temp Dewpoint Dewpoint Depression Visibility Wind Speed Wind Dir Waves Ship Positions

MSC Alexa

Last reported at 2016-Aug-23 01:34 UTC. Time now 2016-Aug-26 12:02 UTC.
Position N 14°26' W 017°25'.

Length 243 m; draft 10.8 m.

Type: Ship (hazmat cat A). MMSI: 356904000.

Date/timePositionNaut miles runAvg speedWind from/ knotsBaromVisibWave heightAir tempDewpointWater temp
2016-Aug-23 01:34N 14°26' W 017°25'1515.1
2016-Aug-23 00:33N 14°41' W 017°23'2 2.1
2016-Aug-22 23:33N 14°41' W 017°26'0 0.0
2016-Aug-22 22:33N 14°41' W 017°26'0 0.0
2016-Aug-22 21:33N 14°41' W 017°26'0 0.0
2016-Aug-22 20:33N 14°41' W 017°26'0 0.0
2016-Aug-22 19:34N 14°41' W 017°26'0 0.0
2016-Aug-22 18:33N 14°41' W 017°26'0 0.0
2016-Aug-22 17:33N 14°41' W 017°26'0 0.0
2016-Aug-22 16:33N 14°41' W 017°26'0 0.0
2016-Aug-22 15:33N 14°41' W 017°26'0 0.0
2016-Aug-22 14:33N 14°41' W 017°26'0 0.0
2016-Aug-22 13:33N 14°41' W 017°26'0 0.0
2016-Aug-22 12:33N 14°41' W 017°26'0 0.0
2016-Aug-22 11:33N 14°41' W 017°26'0 0.0
2016-Aug-22 10:33N 14°41' W 017°26'0 0.0
2016-Aug-22 09:33N 14°41' W 017°26'0 0.0
2016-Aug-22 08:33N 14°41' W 017°26'0 0.0
2016-Aug-22 07:25N 14°41' W 017°26'0 0.0
2016-Aug-22 06:33N 14°41' W 017°26'0 0.0
2016-Aug-22 05:33N 14°41' W 017°26'0 0.0
2016-Aug-22 04:33N 14°41' W 017°26'0 0.0
2016-Aug-22 03:33N 14°41' W 017°26'0 0.0
2016-Aug-22 02:33N 14°41' W 017°26'0 0.0
2016-Aug-22 01:33N 14°41' W 017°26'0 0.0
2016-Aug-22 00:33N 14°41' W 017°26'1 0.7
2016-Aug-21 23:33N 14°41' W 017°25'3 2.6
2016-Aug-21 22:33N 14°38' W 017°23'  
2016-Aug-19 16:17N 27°32' W 015°19'1317.5
2016-Aug-19 15:34N 27°44' W 015°14'1515.1
2016-Aug-19 14:34N 27°59' W 015°15'1212.2
2016-Aug-19 13:33N 28°08' W 015°25'0 0.4
2016-Aug-19 12:33N 28°08' W 015°25'0 0.0
2016-Aug-19 11:33N 28°08' W 015°25'0 0.0
2016-Aug-19 10:33N 28°08' W 015°25'0 0.0
2016-Aug-19 09:33N 28°08' W 015°25'0 0.0
2016-Aug-19 08:33N 28°08' W 015°25'0 0.0
2016-Aug-19 07:33N 28°08' W 015°25'0 0.0
2016-Aug-19 06:33N 28°08' W 015°25'0 0.0
2016-Aug-19 05:33N 28°08' W 015°25'0 0.0
2016-Aug-19 04:33N 28°08' W 015°25'0 0.0
2016-Aug-19 03:33N 28°08' W 015°25'0 0.0
2016-Aug-19 02:33N 28°08' W 015°25'0 0.0
2016-Aug-19 01:33N 28°08' W 015°25'0 0.0
2016-Aug-19 00:33N 28°08' W 015°25'0 0.0
2016-Aug-18 23:34N 28°08' W 015°25'0 0.0
2016-Aug-18 22:33N 28°08' W 015°25'0 0.0
2016-Aug-18 21:33N 28°08' W 015°25'0 0.0
2016-Aug-18 20:33N 28°08' W 015°25'0 0.0
2016-Aug-18 19:33N 28°08' W 015°25'0 0.0
2016-Aug-18 18:33N 28°08' W 015°25'1 1.1
2016-Aug-18 17:33N 28°07' W 015°24'4 4.2
2016-Aug-18 16:33N 28°08' W 015°20'7 7.2
2016-Aug-18 15:33N 28°09' W 015°12'9 9.4
2016-Aug-18 14:33N 28°11' W 015°01'9 9.1
2016-Aug-18 13:33N 28°19' W 014°56'10 9.8
2016-Aug-18 12:32N 28°28' W 014°52'10 9.8
2016-Aug-18 11:33N 28°38' W 014°49'9 9.5
2016-Aug-18 10:33N 28°47' W 014°47'10 9.6
2016-Aug-18 09:33N 28°56' W 014°44'1313.2
2016-Aug-18 08:33N 29°09' W 014°40'1817.8
2016-Aug-18 07:33N 29°26' W 014°35'1817.6
2016-Aug-18 06:33N 29°43' W 014°30'1817.8
2016-Aug-18 05:33N 30°00' W 014°24'2017.8
2016-Aug-18 04:28N 30°19' W 014°19'1717.8
2016-Aug-18 03:30N 30°36' W 014°14'1717.9
2016-Aug-18 02:31N 30°53' W 014°08'1917.9
2016-Aug-18 01:27N 31°11' W 014°03'1817.9
2016-Aug-18 00:26N 31°29' W 013°57'7118.2
2016-Aug-17 20:30N 32°38' W 013°35'  
2016-Aug-15 11:21N 48°25' W 006°11'1316.9
2016-Aug-15 10:33N 48°37' W 006°01'1717.2
2016-Aug-15 09:33N 48°51' W 005°48'1817.9
2016-Aug-15 08:33N 49°01' W 005°25'1918.1
2016-Aug-15 07:30N 49°11' W 004°60'1717.9
2016-Aug-15 06:33N 49°20' W 004°38'3417.2
2016-Aug-15 04:34N 49°38' W 003°53'1616.4
2016-Aug-15 03:33N 49°47' W 003°32'1716.5
2016-Aug-15 02:34N 49°54' W 003°09'1717.1
2016-Aug-15 01:34N 50°01' W 002°44'1818.0
2016-Aug-15 00:33N 50°02' W 002°16'1918.6
2016-Aug-14 23:34N 49°56' W 001°49'2019.7
2016-Aug-14 22:34N 49°50' W 001°20'1919.3
2016-Aug-14 21:34N 49°43' W 000°52'1817.9
2016-Aug-14 20:34N 49°36' W 000°26'1515.2
2016-Aug-14 19:34N 49°31' W 000°05'9 9.2
2016-Aug-14 18:33N 49°28' E 000°09'0 0.0
2016-Aug-14 17:33N 49°28' E 000°09'0 0.0
2016-Aug-14 16:33N 49°28' E 000°09'0 0.0
2016-Aug-14 15:33N 49°28' E 000°09'0 0.0
2016-Aug-14 14:33N 49°28' E 000°09'0 0.0
2016-Aug-14 13:33N 49°28' E 000°09'0 0.0
2016-Aug-14 12:33N 49°28' E 000°09'9 9.2
2016-Aug-14 11:33N 49°31' W 000°04'9 8.6
2016-Aug-14 10:33N 49°36' W 000°15'0 0.2
2016-Aug-14 09:33N 49°36' W 000°15'5 5.2
2016-Aug-14 08:33N 49°41' W 000°13'1212.1
2016-Aug-14 07:34N 49°53' W 000°12'1717.2
2016-Aug-14 06:33N 50°10' W 000°11'3015.0
2016-Aug-14 04:33N 50°33' E 000°20'2217.0
2016-Aug-14 03:17N 50°43' E 000°50'1318.3
2016-Aug-14 02:33N 50°52' E 001°06'1818.7
2016-Aug-14 01:33N 51°04' E 001°28'1817.6
2016-Aug-14 00:34N 51°17' E 001°48'1616.1
2016-Aug-13 23:33N 51°33' E 001°50'1616.3
2016-Aug-13 22:34N 51°49' E 001°43'1110.7
2016-Aug-13 21:34N 51°56' E 001°31'8 7.7
2016-Aug-13 20:28N 51°58' E 001°18'0 0.0
2016-Aug-13 19:33N 51°58' E 001°18'0 0.0
2016-Aug-13 18:33N 51°58' E 001°18'0 0.0
2016-Aug-13 17:33N 51°58' E 001°18'0 0.0
2016-Aug-13 16:33N 51°58' E 001°18'0 0.0
2016-Aug-13 15:33N 51°58' E 001°18'0 0.0
2016-Aug-13 14:33N 51°58' E 001°18'0 0.0
2016-Aug-13 13:33N 51°58' E 001°18'0 0.0
2016-Aug-13 12:33N 51°58' E 001°18'0 0.0
2016-Aug-13 11:33N 51°58' E 001°18'0 0.0
2016-Aug-13 10:33N 51°58' E 001°18'0 0.0
2016-Aug-13 09:33N 51°58' E 001°18'0 0.0
2016-Aug-13 08:33N 51°58' E 001°18'0 0.0
2016-Aug-13 07:33N 51°58' E 001°18'0 0.0
2016-Aug-13 06:34N 51°58' E 001°18'0 0.0
2016-Aug-13 05:33N 51°58' E 001°18'0 0.0
2016-Aug-13 04:33N 51°58' E 001°18'0 0.0
2016-Aug-13 03:33N 51°58' E 001°18'3 3.2
2016-Aug-13 02:33N 51°56' E 001°22'  
Track history (hours):
 
Tides and Currents Weather Stations Pressure Air Temp Water Temp Dewpoint Dewpoint Depression Visibility Wind Speed Wind Dir Waves Ship Positions

MSC Alexa

Last reported at 2016-Aug-23 01:34 UTC. Time now 2016-Aug-26 12:02 UTC.
Position N 14°26' W 017°25'.

Length 243 m; draft 10.8 m.

Type: Ship (hazmat cat A). MMSI: 356904000.

Date/timePositionNaut miles runAvg speedWind from/ knotsBaromVisibWave heightAir tempDewpointWater temp
2016-Aug-23 01:34N 14°26' W 017°25'1515.1
2016-Aug-23 00:33N 14°41' W 017°23'2 2.1
2016-Aug-22 23:33N 14°41' W 017°26'0 0.0
2016-Aug-22 22:33N 14°41' W 017°26'0 0.0
2016-Aug-22 21:33N 14°41' W 017°26'0 0.0
2016-Aug-22 20:33N 14°41' W 017°26'0 0.0
2016-Aug-22 19:34N 14°41' W 017°26'0 0.0
2016-Aug-22 18:33N 14°41' W 017°26'0 0.0
2016-Aug-22 17:33N 14°41' W 017°26'0 0.0
2016-Aug-22 16:33N 14°41' W 017°26'0 0.0
2016-Aug-22 15:33N 14°41' W 017°26'0 0.0
2016-Aug-22 14:33N 14°41' W 017°26'0 0.0
2016-Aug-22 13:33N 14°41' W 017°26'0 0.0
2016-Aug-22 12:33N 14°41' W 017°26'0 0.0
2016-Aug-22 11:33N 14°41' W 017°26'0 0.0
2016-Aug-22 10:33N 14°41' W 017°26'0 0.0
2016-Aug-22 09:33N 14°41' W 017°26'0 0.0
2016-Aug-22 08:33N 14°41' W 017°26'0 0.0
2016-Aug-22 07:25N 14°41' W 017°26'0 0.0
2016-Aug-22 06:33N 14°41' W 017°26'0 0.0
2016-Aug-22 05:33N 14°41' W 017°26'0 0.0
2016-Aug-22 04:33N 14°41' W 017°26'0 0.0
2016-Aug-22 03:33N 14°41' W 017°26'0 0.0
2016-Aug-22 02:33N 14°41' W 017°26'0 0.0
2016-Aug-22 01:33N 14°41' W 017°26'0 0.0
2016-Aug-22 00:33N 14°41' W 017°26'1 0.7
2016-Aug-21 23:33N 14°41' W 017°25'3 2.6
2016-Aug-21 22:33N 14°38' W 017°23'  
2016-Aug-19 16:17N 27°32' W 015°19'1317.5
2016-Aug-19 15:34N 27°44' W 015°14'1515.1
2016-Aug-19 14:34N 27°59' W 015°15'1212.2
2016-Aug-19 13:33N 28°08' W 015°25'0 0.4
2016-Aug-19 12:33N 28°08' W 015°25'0 0.0
2016-Aug-19 11:33N 28°08' W 015°25'0 0.0
2016-Aug-19 10:33N 28°08' W 015°25'0 0.0
2016-Aug-19 09:33N 28°08' W 015°25'0 0.0
2016-Aug-19 08:33N 28°08' W 015°25'0 0.0
2016-Aug-19 07:33N 28°08' W 015°25'0 0.0
2016-Aug-19 06:33N 28°08' W 015°25'0 0.0
2016-Aug-19 05:33N 28°08' W 015°25'0 0.0
2016-Aug-19 04:33N 28°08' W 015°25'0 0.0
2016-Aug-19 03:33N 28°08' W 015°25'0 0.0
2016-Aug-19 02:33N 28°08' W 015°25'0 0.0
2016-Aug-19 01:33N 28°08' W 015°25'0 0.0
2016-Aug-19 00:33N 28°08' W 015°25'0 0.0
2016-Aug-18 23:34N 28°08' W 015°25'0 0.0
2016-Aug-18 22:33N 28°08' W 015°25'0 0.0
2016-Aug-18 21:33N 28°08' W 015°25'0 0.0
2016-Aug-18 20:33N 28°08' W 015°25'0 0.0
2016-Aug-18 19:33N 28°08' W 015°25'0 0.0
2016-Aug-18 18:33N 28°08' W 015°25'1 1.1
2016-Aug-18 17:33N 28°07' W 015°24'4 4.2
2016-Aug-18 16:33N 28°08' W 015°20'7 7.2
2016-Aug-18 15:33N 28°09' W 015°12'9 9.4
2016-Aug-18 14:33N 28°11' W 015°01'9 9.1
2016-Aug-18 13:33N 28°19' W 014°56'10 9.8
2016-Aug-18 12:32N 28°28' W 014°52'10 9.8
2016-Aug-18 11:33N 28°38' W 014°49'9 9.5
2016-Aug-18 10:33N 28°47' W 014°47'10 9.6
2016-Aug-18 09:33N 28°56' W 014°44'1313.2
2016-Aug-18 08:33N 29°09' W 014°40'1817.8
2016-Aug-18 07:33N 29°26' W 014°35'1817.6
2016-Aug-18 06:33N 29°43' W 014°30'1817.8
2016-Aug-18 05:33N 30°00' W 014°24'2017.8
2016-Aug-18 04:28N 30°19' W 014°19'1717.8
2016-Aug-18 03:30N 30°36' W 014°14'1717.9
2016-Aug-18 02:31N 30°53' W 014°08'1917.9
2016-Aug-18 01:27N 31°11' W 014°03'1817.9
2016-Aug-18 00:26N 31°29' W 013°57'7118.2
2016-Aug-17 20:30N 32°38' W 013°35'  
2016-Aug-15 11:21N 48°25' W 006°11'1316.9
2016-Aug-15 10:33N 48°37' W 006°01'1717.2
2016-Aug-15 09:33N 48°51' W 005°48'1817.9
2016-Aug-15 08:33N 49°01' W 005°25'1918.1
2016-Aug-15 07:30N 49°11' W 004°60'1717.9
2016-Aug-15 06:33N 49°20' W 004°38'3417.2
2016-Aug-15 04:34N 49°38' W 003°53'1616.4
2016-Aug-15 03:33N 49°47' W 003°32'1716.5
2016-Aug-15 02:34N 49°54' W 003°09'1717.1
2016-Aug-15 01:34N 50°01' W 002°44'1818.0
2016-Aug-15 00:33N 50°02' W 002°16'1918.6
2016-Aug-14 23:34N 49°56' W 001°49'2019.7
2016-Aug-14 22:34N 49°50' W 001°20'1919.3
2016-Aug-14 21:34N 49°43' W 000°52'1817.9
2016-Aug-14 20:34N 49°36' W 000°26'1515.2
2016-Aug-14 19:34N 49°31' W 000°05'9 9.2
2016-Aug-14 18:33N 49°28' E 000°09'0 0.0
2016-Aug-14 17:33N 49°28' E 000°09'0 0.0
2016-Aug-14 16:33N 49°28' E 000°09'0 0.0
2016-Aug-14 15:33N 49°28' E 000°09'0 0.0
2016-Aug-14 14:33N 49°28' E 000°09'0 0.0
2016-Aug-14 13:33N 49°28' E 000°09'0 0.0
2016-Aug-14 12:33N 49°28' E 000°09'9 9.2
2016-Aug-14 11:33N 49°31' W 000°04'9 8.6
2016-Aug-14 10:33N 49°36' W 000°15'0 0.2
2016-Aug-14 09:33N 49°36' W 000°15'5 5.2
2016-Aug-14 08:33N 49°41' W 000°13'1212.1
2016-Aug-14 07:34N 49°53' W 000°12'1717.2
2016-Aug-14 06:33N 50°10' W 000°11'3015.0
2016-Aug-14 04:33N 50°33' E 000°20'2217.0
2016-Aug-14 03:17N 50°43' E 000°50'1318.3
2016-Aug-14 02:33N 50°52' E 001°06'1818.7
2016-Aug-14 01:33N 51°04' E 001°28'1817.6
2016-Aug-14 00:34N 51°17' E 001°48'1616.1
2016-Aug-13 23:33N 51°33' E 001°50'1616.3
2016-Aug-13 22:34N 51°49' E 001°43'1110.7
2016-Aug-13 21:34N 51°56' E 001°31'8 7.7
2016-Aug-13 20:28N 51°58' E 001°18'0 0.0
2016-Aug-13 19:33N 51°58' E 001°18'0 0.0
2016-Aug-13 18:33N 51°58' E 001°18'0 0.0
2016-Aug-13 17:33N 51°58' E 001°18'0 0.0
2016-Aug-13 16:33N 51°58' E 001°18'0 0.0
2016-Aug-13 15:33N 51°58' E 001°18'0 0.0
2016-Aug-13 14:33N 51°58' E 001°18'0 0.0
2016-Aug-13 13:33N 51°58' E 001°18'0 0.0
2016-Aug-13 12:33N 51°58' E 001°18'0 0.0
2016-Aug-13 11:33N 51°58' E 001°18'0 0.0
2016-Aug-13 10:33N 51°58' E 001°18'0 0.0
2016-Aug-13 09:33N 51°58' E 001°18'0 0.0
2016-Aug-13 08:33N 51°58' E 001°18'0 0.0
2016-Aug-13 07:33N 51°58' E 001°18'0 0.0
2016-Aug-13 06:34N 51°58' E 001°18'0 0.0
2016-Aug-13 05:33N 51°58' E 001°18'0 0.0
2016-Aug-13 04:33N 51°58' E 001°18'0 0.0
2016-Aug-13 03:33N 51°58' E 001°18'3 3.2
2016-Aug-13 02:33N 51°56' E 001°22'  

Dump ship's entire track history